sensor_id;sensor_type;location;lat;lon;timestamp;temperature;humidity
23323;DHT22;11833;52.554;13.554;2023-04-25T00:00:42;10.60;99.90
23323;DHT22;11833;52.554;13.554;2023-04-25T00:03:08;10.40;99.90
23323;DHT22;11833;52.554;13.554;2023-04-25T00:05:34;10.20;99.90
23323;DHT22;11833;52.554;13.554;2023-04-25T00:08:02;10.30;99.90
23323;DHT22;11833;52.554;13.554;2023-04-25T00:10:29;10.00;99.90
23323;DHT22;11833;52.554;13.554;2023-04-25T00:12:55;9.90;99.90
23323;DHT22;11833;52.554;13.554;2023-04-25T00:15:21;9.90;99.90
23323;DHT22;11833;52.554;13.554;2023-04-25T00:17:47;9.90;99.90
23323;DHT22;11833;52.554;13.554;2023-04-25T00:20:13;9.90;99.90
23323;DHT22;11833;52.554;13.554;2023-04-25T00:22:38;10.20;99.90
23323;DHT22;11833;52.554;13.554;2023-04-25T00:25:05;10.50;99.90
23323;DHT22;11833;52.554;13.554;2023-04-25T00:27:32;10.00;99.90
23323;DHT22;11833;52.554;13.554;2023-04-25T00:29:58;9.90;99.90
23323;DHT22;11833;52.554;13.554;2023-04-25T00:32:24;9.80;99.90
23323;DHT22;11833;52.554;13.554;2023-04-25T00:34:50;9.80;99.90
23323;DHT22;11833;52.554;13.554;2023-04-25T00:37:16;10.10;99.90
23323;DHT22;11833;52.554;13.554;2023-04-25T00:39:42;9.80;99.90
23323;DHT22;11833;52.554;13.554;2023-04-25T00:42:08;9.70;99.90
23323;DHT22;11833;52.554;13.554;2023-04-25T00:44:35;9.70;99.90
23323;DHT22;11833;52.554;13.554;2023-04-25T00:47:02;9.70;99.90
23323;DHT22;11833;52.554;13.554;2023-04-25T00:49:28;10.00;99.90
23323;DHT22;11833;52.554;13.554;2023-04-25T00:51:55;9.90;99.90
23323;DHT22;11833;52.554;13.554;2023-04-25T00:54:21;9.80;99.90
23323;DHT22;11833;52.554;13.554;2023-04-25T00:56:47;9.80;99.90
23323;DHT22;11833;52.554;13.554;2023-04-25T00:59:14;9.70;99.90
23323;DHT22;11833;52.554;13.554;2023-04-25T01:01:41;9.70;99.90
23323;DHT22;11833;52.554;13.554;2023-04-25T01:04:07;9.70;99.90
23323;DHT22;11833;52.554;13.554;2023-04-25T01:06:33;9.60;99.90
23323;DHT22;11833;52.554;13.554;2023-04-25T01:08:59;9.70;99.90
23323;DHT22;11833;52.554;13.554;2023-04-25T01:11:25;9.70;99.90
23323;DHT22;11833;52.554;13.554;2023-04-25T01:13:51;9.60;99.90
23323;DHT22;11833;52.554;13.554;2023-04-25T01:16:17;9.70;99.90
23323;DHT22;11833;52.554;13.554;2023-04-25T01:18:43;10.10;99.90
23323;DHT22;11833;52.554;13.554;2023-04-25T01:21:11;9.80;99.90
23323;DHT22;11833;52.554;13.554;2023-04-25T01:23:41;9.70;99.90
23323;DHT22;11833;52.554;13.554;2023-04-25T01:26:10;9.60;99.90
23323;DHT22;11833;52.554;13.554;2023-04-25T01:28:37;9.90;99.90
23323;DHT22;11833;52.554;13.554;2023-04-25T01:31:04;9.60;99.90
23323;DHT22;11833;52.554;13.554;2023-04-25T01:33:31;9.60;99.90
23323;DHT22;11833;52.554;13.554;2023-04-25T01:35:57;9.50;99.90
23323;DHT22;11833;52.554;13.554;2023-04-25T01:38:23;9.60;99.90
23323;DHT22;11833;52.554;13.554;2023-04-25T01:40:50;9.60;99.90
23323;DHT22;11833;52.554;13.554;2023-04-25T01:43:16;9.50;99.90
23323;DHT22;11833;52.554;13.554;2023-04-25T01:45:43;9.40;99.90
23323;DHT22;11833;52.554;13.554;2023-04-25T01:48:10;9.40;99.90
23323;DHT22;11833;52.554;13.554;2023-04-25T01:50:38;10.00;99.90
23323;DHT22;11833;52.554;13.554;2023-04-25T01:53:05;9.80;99.90
23323;DHT22;11833;52.554;13.554;2023-04-25T01:55:31;9.50;99.90
23323;DHT22;11833;52.554;13.554;2023-04-25T01:57:57;9.70;99.90
23323;DHT22;11833;52.554;13.554;2023-04-25T02:00:24;9.60;99.90
23323;DHT22;11833;52.554;13.554;2023-04-25T02:02:50;9.60;99.90
23323;DHT22;11833;52.554;13.554;2023-04-25T02:05:16;9.80;99.90
23323;DHT22;11833;52.554;13.554;2023-04-25T02:07:43;9.90;99.90
23323;DHT22;11833;52.554;13.554;2023-04-25T02:10:10;9.80;99.90
23323;DHT22;11833;52.554;13.554;2023-04-25T02:12:36;10.00;99.90
23323;DHT22;11833;52.554;13.554;2023-04-25T02:15:02;9.90;99.90
23323;DHT22;11833;52.554;13.554;2023-04-25T02:17:27;9.90;99.90
23323;DHT22;11833;52.554;13.554;2023-04-25T02:19:53;9.90;99.90
23323;DHT22;11833;52.554;13.554;2023-04-25T02:22:19;9.70;99.90
23323;DHT22;11833;52.554;13.554;2023-04-25T02:24:46;9.60;99.90
23323;DHT22;11833;52.554;13.554;2023-04-25T02:27:12;9.70;99.90
23323;DHT22;11833;52.554;13.554;2023-04-25T02:29:38;9.50;99.90
23323;DHT22;11833;52.554;13.554;2023-04-25T02:32:04;9.70;99.90
23323;DHT22;11833;52.554;13.554;2023-04-25T02:34:29;9.90;99.90
23323;DHT22;11833;52.554;13.554;2023-04-25T02:36:55;9.70;99.90
23323;DHT22;11833;52.554;13.554;2023-04-25T02:39:21;9.50;99.90
23323;DHT22;11833;52.554;13.554;2023-04-25T02:41:47;9.80;99.90
23323;DHT22;11833;52.554;13.554;2023-04-25T02:44:13;9.70;99.90
23323;DHT22;11833;52.554;13.554;2023-04-25T02:46:39;9.80;99.90
23323;DHT22;11833;52.554;13.554;2023-04-25T02:49:04;9.70;99.90
23323;DHT22;11833;52.554;13.554;2023-04-25T02:51:30;9.80;99.90
23323;DHT22;11833;52.554;13.554;2023-04-25T02:53:56;9.80;99.90
23323;DHT22;11833;52.554;13.554;2023-04-25T02:56:22;9.90;99.90
23323;DHT22;11833;52.554;13.554;2023-04-25T02:58:48;9.80;99.90
23323;DHT22;11833;52.554;13.554;2023-04-25T03:01:13;9.50;99.90
23323;DHT22;11833;52.554;13.554;2023-04-25T03:03:39;9.70;99.90
23323;DHT22;11833;52.554;13.554;2023-04-25T03:06:05;9.60;99.90
23323;DHT22;11833;52.554;13.554;2023-04-25T03:08:31;9.50;99.90
23323;DHT22;11833;52.554;13.554;2023-04-25T03:10:58;9.30;99.90
23323;DHT22;11833;52.554;13.554;2023-04-25T03:13:24;9.50;99.90
23323;DHT22;11833;52.554;13.554;2023-04-25T03:15:50;9.60;99.90
23323;DHT22;11833;52.554;13.554;2023-04-25T03:18:16;9.40;99.90
23323;DHT22;11833;52.554;13.554;2023-04-25T03:20:41;9.60;99.90
23323;DHT22;11833;52.554;13.554;2023-04-25T03:23:08;9.40;99.90
23323;DHT22;11833;52.554;13.554;2023-04-25T03:25:33;9.40;99.90
23323;DHT22;11833;52.554;13.554;2023-04-25T03:27:59;9.30;99.90
23323;DHT22;11833;52.554;13.554;2023-04-25T03:30:25;9.20;99.90
23323;DHT22;11833;52.554;13.554;2023-04-25T03:32:51;9.50;99.90
23323;DHT22;11833;52.554;13.554;2023-04-25T03:35:16;9.70;99.90
23323;DHT22;11833;52.554;13.554;2023-04-25T03:37:42;10.00;99.90
23323;DHT22;11833;52.554;13.554;2023-04-25T03:40:11;9.90;99.90
23323;DHT22;11833;52.554;13.554;2023-04-25T03:42:37;9.70;99.90
23323;DHT22;11833;52.554;13.554;2023-04-25T03:45:03;9.70;99.90
23323;DHT22;11833;52.554;13.554;2023-04-25T03:47:29;9.60;99.90
23323;DHT22;11833;52.554;13.554;2023-04-25T03:49:55;9.60;99.90
23323;DHT22;11833;52.554;13.554;2023-04-25T03:52:20;9.50;99.90
23323;DHT22;11833;52.554;13.554;2023-04-25T03:54:46;9.30;99.90
23323;DHT22;11833;52.554;13.554;2023-04-25T03:57:12;9.40;99.90
23323;DHT22;11833;52.554;13.554;2023-04-25T03:59:38;9.20;99.90
23323;DHT22;11833;52.554;13.554;2023-04-25T04:02:04;9.20;99.90
23323;DHT22;11833;52.554;13.554;2023-04-25T04:04:29;9.30;99.90
23323;DHT22;11833;52.554;13.554;2023-04-25T04:06:55;9.50;99.90
23323;DHT22;11833;52.554;13.554;2023-04-25T04:09:21;9.50;99.90
23323;DHT22;11833;52.554;13.554;2023-04-25T04:11:47;9.30;99.90
23323;DHT22;11833;52.554;13.554;2023-04-25T04:14:13;9.40;99.90
23323;DHT22;11833;52.554;13.554;2023-04-25T04:16:38;9.80;99.90
23323;DHT22;11833;52.554;13.554;2023-04-25T04:19:04;9.60;99.90
23323;DHT22;11833;52.554;13.554;2023-04-25T04:21:30;9.30;99.90
23323;DHT22;11833;52.554;13.554;2023-04-25T04:23:57;9.10;99.90
23323;DHT22;11833;52.554;13.554;2023-04-25T04:26:25;9.60;99.90
23323;DHT22;11833;52.554;13.554;2023-04-25T04:28:52;9.30;99.90
23323;DHT22;11833;52.554;13.554;2023-04-25T04:31:22;9.30;99.90
23323;DHT22;11833;52.554;13.554;2023-04-25T04:33:49;9.30;99.90
23323;DHT22;11833;52.554;13.554;2023-04-25T04:36:15;9.20;99.90
23323;DHT22;11833;52.554;13.554;2023-04-25T04:38:41;9.20;99.90
23323;DHT22;11833;52.554;13.554;2023-04-25T04:41:07;9.60;99.90
23323;DHT22;11833;52.554;13.554;2023-04-25T04:43:33;9.40;99.90
23323;DHT22;11833;52.554;13.554;2023-04-25T04:46:02;9.20;99.90
23323;DHT22;11833;52.554;13.554;2023-04-25T04:48:30;9.10;99.90
23323;DHT22;11833;52.554;13.554;2023-04-25T04:50:58;9.10;99.90
23323;DHT22;11833;52.554;13.554;2023-04-25T04:53:24;9.60;99.90
23323;DHT22;11833;52.554;13.554;2023-04-25T04:55:50;9.70;99.90
23323;DHT22;11833;52.554;13.554;2023-04-25T04:58:16;9.60;99.90
23323;DHT22;11833;52.554;13.554;2023-04-25T05:00:41;9.60;99.90
23323;DHT22;11833;52.554;13.554;2023-04-25T05:03:07;9.30;99.90
23323;DHT22;11833;52.554;13.554;2023-04-25T05:05:33;9.40;99.90
23323;DHT22;11833;52.554;13.554;2023-04-25T05:07:59;9.40;99.90
23323;DHT22;11833;52.554;13.554;2023-04-25T05:10:25;9.40;99.90
23323;DHT22;11833;52.554;13.554;2023-04-25T05:12:51;9.30;99.90
23323;DHT22;11833;52.554;13.554;2023-04-25T05:15:17;9.50;99.90
23323;DHT22;11833;52.554;13.554;2023-04-25T05:17:42;9.50;99.90
23323;DHT22;11833;52.554;13.554;2023-04-25T05:20:08;9.30;99.90
23323;DHT22;11833;52.554;13.554;2023-04-25T05:22:35;9.40;99.90
23323;DHT22;11833;52.554;13.554;2023-04-25T05:25:01;9.60;99.90
23323;DHT22;11833;52.554;13.554;2023-04-25T05:27:26;9.60;99.90
23323;DHT22;11833;52.554;13.554;2023-04-25T05:29:52;9.40;99.90
23323;DHT22;11833;52.554;13.554;2023-04-25T05:32:18;9.40;99.90
23323;DHT22;11833;52.554;13.554;2023-04-25T05:34:44;9.40;99.90
23323;DHT22;11833;52.554;13.554;2023-04-25T05:37:09;9.20;99.90
23323;DHT22;11833;52.554;13.554;2023-04-25T05:39:35;9.50;99.90
23323;DHT22;11833;52.554;13.554;2023-04-25T05:42:01;9.60;99.90
23323;DHT22;11833;52.554;13.554;2023-04-25T05:44:28;9.60;99.90
23323;DHT22;11833;52.554;13.554;2023-04-25T05:46:55;9.60;99.90
23323;DHT22;11833;52.554;13.554;2023-04-25T05:49:45;9.90;99.90
23323;DHT22;11833;52.554;13.554;2023-04-25T05:52:11;9.90;99.90
23323;DHT22;11833;52.554;13.554;2023-04-25T05:54:37;9.70;99.90
23323;DHT22;11833;52.554;13.554;2023-04-25T05:57:02;9.60;99.90
23323;DHT22;11833;52.554;13.554;2023-04-25T05:59:28;9.40;99.90
23323;DHT22;11833;52.554;13.554;2023-04-25T06:01:54;9.60;99.90
23323;DHT22;11833;52.554;13.554;2023-04-25T06:04:20;9.50;99.90
23323;DHT22;11833;52.554;13.554;2023-04-25T06:06:45;9.60;99.90
23323;DHT22;11833;52.554;13.554;2023-04-25T06:09:11;9.60;99.90
23323;DHT22;11833;52.554;13.554;2023-04-25T06:11:37;10.00;99.90
23323;DHT22;11833;52.554;13.554;2023-04-25T06:14:03;10.10;99.90
23323;DHT22;11833;52.554;13.554;2023-04-25T06:16:28;9.70;99.90
23323;DHT22;11833;52.554;13.554;2023-04-25T06:18:54;9.40;99.90
23323;DHT22;11833;52.554;13.554;2023-04-25T06:21:20;9.80;99.90
23323;DHT22;11833;52.554;13.554;2023-04-25T06:23:45;9.90;99.90
23323;DHT22;11833;52.554;13.554;2023-04-25T06:26:11;9.70;99.90
23323;DHT22;11833;52.554;13.554;2023-04-25T06:28:37;9.50;99.90
23323;DHT22;11833;52.554;13.554;2023-04-25T06:31:03;9.50;99.90
23323;DHT22;11833;52.554;13.554;2023-04-25T06:33:28;9.40;99.90
23323;DHT22;11833;52.554;13.554;2023-04-25T06:35:54;9.30;99.90
23323;DHT22;11833;52.554;13.554;2023-04-25T06:38:20;9.30;99.90
23323;DHT22;11833;52.554;13.554;2023-04-25T06:40:46;9.60;99.90
23323;DHT22;11833;52.554;13.554;2023-04-25T06:43:11;9.80;99.90
23323;DHT22;11833;52.554;13.554;2023-04-25T06:45:38;9.60;99.90
23323;DHT22;11833;52.554;13.554;2023-04-25T06:48:04;9.50;99.90
23323;DHT22;11833;52.554;13.554;2023-04-25T06:50:30;9.60;99.90
23323;DHT22;11833;52.554;13.554;2023-04-25T06:52:55;9.40;99.90
23323;DHT22;11833;52.554;13.554;2023-04-25T06:55:21;9.50;99.90
23323;DHT22;11833;52.554;13.554;2023-04-25T06:57:47;9.80;99.90
23323;DHT22;11833;52.554;13.554;2023-04-25T07:00:13;9.80;99.90
23323;DHT22;11833;52.554;13.554;2023-04-25T07:02:39;9.50;99.90
23323;DHT22;11833;52.554;13.554;2023-04-25T07:05:07;9.50;99.90
23323;DHT22;11833;52.554;13.554;2023-04-25T07:07:33;9.50;99.90
23323;DHT22;11833;52.554;13.554;2023-04-25T07:09:59;9.70;99.90
23323;DHT22;11833;52.554;13.554;2023-04-25T07:12:25;9.90;99.90
23323;DHT22;11833;52.554;13.554;2023-04-25T07:14:51;9.60;99.90
23323;DHT22;11833;52.554;13.554;2023-04-25T07:17:17;9.50;99.90
23323;DHT22;11833;52.554;13.554;2023-04-25T07:19:43;9.80;99.90
23323;DHT22;11833;52.554;13.554;2023-04-25T07:22:08;9.50;99.90
23323;DHT22;11833;52.554;13.554;2023-04-25T07:24:34;9.30;99.90
23323;DHT22;11833;52.554;13.554;2023-04-25T07:27:00;9.30;99.90
23323;DHT22;11833;52.554;13.554;2023-04-25T07:29:26;9.30;99.90
23323;DHT22;11833;52.554;13.554;2023-04-25T07:31:53;9.40;99.90
23323;DHT22;11833;52.554;13.554;2023-04-25T07:34:19;9.50;99.90
23323;DHT22;11833;52.554;13.554;2023-04-25T07:36:45;9.40;99.90
23323;DHT22;11833;52.554;13.554;2023-04-25T07:39:11;9.40;99.90
23323;DHT22;11833;52.554;13.554;2023-04-25T07:41:36;9.50;99.90
23323;DHT22;11833;52.554;13.554;2023-04-25T07:44:02;9.20;99.90
23323;DHT22;11833;52.554;13.554;2023-04-25T07:46:28;9.20;99.90
23323;DHT22;11833;52.554;13.554;2023-04-25T07:48:54;9.30;99.90
23323;DHT22;11833;52.554;13.554;2023-04-25T07:51:20;9.40;99.90
23323;DHT22;11833;52.554;13.554;2023-04-25T07:53:47;9.90;99.90
23323;DHT22;11833;52.554;13.554;2023-04-25T07:56:13;9.70;99.90
23323;DHT22;11833;52.554;13.554;2023-04-25T07:58:39;9.60;99.90
23323;DHT22;11833;52.554;13.554;2023-04-25T08:01:04;9.50;99.90
23323;DHT22;11833;52.554;13.554;2023-04-25T08:03:30;9.70;99.90
23323;DHT22;11833;52.554;13.554;2023-04-25T08:05:56;9.80;99.90
23323;DHT22;11833;52.554;13.554;2023-04-25T08:08:22;9.60;99.90
23323;DHT22;11833;52.554;13.554;2023-04-25T08:10:48;9.50;99.90
23323;DHT22;11833;52.554;13.554;2023-04-25T08:13:13;9.80;99.90
23323;DHT22;11833;52.554;13.554;2023-04-25T08:15:39;10.00;99.90
23323;DHT22;11833;52.554;13.554;2023-04-25T08:18:05;9.70;99.90
23323;DHT22;11833;52.554;13.554;2023-04-25T08:20:31;9.60;99.90
23323;DHT22;11833;52.554;13.554;2023-04-25T08:22:56;9.70;99.90
23323;DHT22;11833;52.554;13.554;2023-04-25T08:25:22;10.00;99.90
23323;DHT22;11833;52.554;13.554;2023-04-25T08:27:48;10.00;99.90
23323;DHT22;11833;52.554;13.554;2023-04-25T08:30:14;10.10;99.90
23323;DHT22;11833;52.554;13.554;2023-04-25T08:32:40;10.20;99.90
23323;DHT22;11833;52.554;13.554;2023-04-25T08:35:06;10.30;99.90
23323;DHT22;11833;52.554;13.554;2023-04-25T08:37:32;10.20;99.90
23323;DHT22;11833;52.554;13.554;2023-04-25T08:39:58;10.00;99.90
23323;DHT22;11833;52.554;13.554;2023-04-25T08:42:24;9.90;99.90
23323;DHT22;11833;52.554;13.554;2023-04-25T08:44:53;9.90;99.90
23323;DHT22;11833;52.554;13.554;2023-04-25T08:47:22;10.10;99.90
23323;DHT22;11833;52.554;13.554;2023-04-25T08:49:49;10.30;99.10
23323;DHT22;11833;52.554;13.554;2023-04-25T08:52:16;10.30;97.30
23323;DHT22;11833;52.554;13.554;2023-04-25T08:54:49;10.10;96.80
23323;DHT22;11833;52.554;13.554;2023-04-25T08:57:17;10.00;97.30
23323;DHT22;11833;52.554;13.554;2023-04-25T08:59:44;10.20;95.50
23323;DHT22;11833;52.554;13.554;2023-04-25T09:02:11;10.10;96.30
23323;DHT22;11833;52.554;13.554;2023-04-25T09:04:43;10.10;96.50
23323;DHT22;11833;52.554;13.554;2023-04-25T09:07:09;10.20;96.50
23323;DHT22;11833;52.554;13.554;2023-04-25T09:09:36;10.30;94.90
23323;DHT22;11833;52.554;13.554;2023-04-25T09:12:03;10.40;93.60
23323;DHT22;11833;52.554;13.554;2023-04-25T09:14:29;10.70;95.00
23323;DHT22;11833;52.554;13.554;2023-04-25T09:19:35;11.20;90.50
23323;DHT22;11833;52.554;13.554;2023-04-25T09:22:04;11.30;87.90
23323;DHT22;11833;52.554;13.554;2023-04-25T09:24:39;11.40;86.10
23323;DHT22;11833;52.554;13.554;2023-04-25T09:27:08;11.50;81.60
23323;DHT22;11833;52.554;13.554;2023-04-25T09:29:40;11.70;80.90
23323;DHT22;11833;52.554;13.554;2023-04-25T09:32:18;11.50;86.70
23323;DHT22;11833;52.554;13.554;2023-04-25T09:34:50;11.90;92.00
23323;DHT22;11833;52.554;13.554;2023-04-25T09:37:22;11.40;92.10
23323;DHT22;11833;52.554;13.554;2023-04-25T09:39:59;11.50;90.20
23323;DHT22;11833;52.554;13.554;2023-04-25T09:42:29;11.90;94.10
23323;DHT22;11833;52.554;13.554;2023-04-25T09:44:57;12.30;96.00
23323;DHT22;11833;52.554;13.554;2023-04-25T09:47:25;11.90;94.20
23323;DHT22;11833;52.554;13.554;2023-04-25T09:49:52;12.00;92.90
23323;DHT22;11833;52.554;13.554;2023-04-25T09:52:23;12.10;87.90
23323;DHT22;11833;52.554;13.554;2023-04-25T09:54:50;12.90;89.80
23323;DHT22;11833;52.554;13.554;2023-04-25T09:57:18;12.60;85.00
23323;DHT22;11833;52.554;13.554;2023-04-25T09:59:46;12.40;88.80
23323;DHT22;11833;52.554;13.554;2023-04-25T10:02:19;12.40;81.30
23323;DHT22;11833;52.554;13.554;2023-04-25T10:04:53;12.00;83.40
23323;DHT22;11833;52.554;13.554;2023-04-25T10:07:24;12.40;79.20
23323;DHT22;11833;52.554;13.554;2023-04-25T10:10:04;12.00;73.30
23323;DHT22;11833;52.554;13.554;2023-04-25T10:12:30;12.00;73.40
23323;DHT22;11833;52.554;13.554;2023-04-25T10:14:58;12.20;70.80
23323;DHT22;11833;52.554;13.554;2023-04-25T10:17:25;12.80;68.20
23323;DHT22;11833;52.554;13.554;2023-04-25T10:19:52;13.20;63.90
23323;DHT22;11833;52.554;13.554;2023-04-25T10:22:42;13.10;63.10
23323;DHT22;11833;52.554;13.554;2023-04-25T10:25:10;12.20;61.30
23323;DHT22;11833;52.554;13.554;2023-04-25T10:27:36;12.00;63.30
23323;DHT22;11833;52.554;13.554;2023-04-25T10:30:15;12.20;61.30
23323;DHT22;11833;52.554;13.554;2023-04-25T10:32:43;12.20;62.90
23323;DHT22;11833;52.554;13.554;2023-04-25T10:35:14;12.00;61.50
23323;DHT22;11833;52.554;13.554;2023-04-25T10:40:36;11.70;62.70
23323;DHT22;11833;52.554;13.554;2023-04-25T10:43:40;11.80;61.70
23323;DHT22;11833;52.554;13.554;2023-04-25T10:48:52;12.10;62.40
23323;DHT22;11833;52.554;13.554;2023-04-25T10:51:32;11.90;62.00
23323;DHT22;11833;52.554;13.554;2023-04-25T10:54:03;11.90;63.80
23323;DHT22;11833;52.554;13.554;2023-04-25T10:56:37;12.10;63.20
23323;DHT22;11833;52.554;13.554;2023-04-25T10:59:15;12.10;62.00
23323;DHT22;11833;52.554;13.554;2023-04-25T11:01:47;11.90;60.70
23323;DHT22;11833;52.554;13.554;2023-04-25T11:04:22;11.80;66.40
23323;DHT22;11833;52.554;13.554;2023-04-25T11:09:45;11.80;79.10
23323;DHT22;11833;52.554;13.554;2023-04-25T11:12:11;11.70;81.30
23323;DHT22;11833;52.554;13.554;2023-04-25T11:14:38;11.60;72.30
23323;DHT22;11833;52.554;13.554;2023-04-25T11:17:04;11.80;67.40
23323;DHT22;11833;52.554;13.554;2023-04-25T11:19:31;12.00;69.40
23323;DHT22;11833;52.554;13.554;2023-04-25T11:21:59;11.80;67.90
23323;DHT22;11833;52.554;13.554;2023-04-25T11:24:27;12.20;78.90
23323;DHT22;11833;52.554;13.554;2023-04-25T11:26:54;12.40;68.70
23323;DHT22;11833;52.554;13.554;2023-04-25T11:29:27;11.90;65.00
23323;DHT22;11833;52.554;13.554;2023-04-25T11:31:54;11.80;70.30
23323;DHT22;11833;52.554;13.554;2023-04-25T11:34:24;11.60;69.40
23323;DHT22;11833;52.554;13.554;2023-04-25T11:36:51;11.80;71.60
23323;DHT22;11833;52.554;13.554;2023-04-25T11:39:20;11.70;69.20
23323;DHT22;11833;52.554;13.554;2023-04-25T11:41:46;11.50;66.30
23323;DHT22;11833;52.554;13.554;2023-04-25T11:44:15;11.20;66.20
23323;DHT22;11833;52.554;13.554;2023-04-25T11:46:42;11.10;65.30
23323;DHT22;11833;52.554;13.554;2023-04-25T11:49:08;10.90;71.70
23323;DHT22;11833;52.554;13.554;2023-04-25T11:51:41;10.90;70.90
23323;DHT22;11833;52.554;13.554;2023-04-25T11:54:08;10.90;69.80
23323;DHT22;11833;52.554;13.554;2023-04-25T11:56:34;11.20;66.10
23323;DHT22;11833;52.554;13.554;2023-04-25T11:59:02;11.20;72.20
23323;DHT22;11833;52.554;13.554;2023-04-25T12:01:33;11.40;67.80
23323;DHT22;11833;52.554;13.554;2023-04-25T12:04:23;11.50;64.50
23323;DHT22;11833;52.554;13.554;2023-04-25T12:06:54;11.50;74.50
23323;DHT22;11833;52.554;13.554;2023-04-25T12:09:31;11.40;71.60
23323;DHT22;11833;52.554;13.554;2023-04-25T12:11:59;11.60;74.40
23323;DHT22;11833;52.554;13.554;2023-04-25T12:14:30;11.30;68.60
23323;DHT22;11833;52.554;13.554;2023-04-25T12:16:59;11.40;80.40
23323;DHT22;11833;52.554;13.554;2023-04-25T12:19:31;11.50;76.80
23323;DHT22;11833;52.554;13.554;2023-04-25T12:22:00;11.70;75.20
23323;DHT22;11833;52.554;13.554;2023-04-25T12:24:27;11.70;78.70
23323;DHT22;11833;52.554;13.554;2023-04-25T12:27:14;11.50;73.40
23323;DHT22;11833;52.554;13.554;2023-04-25T12:29:54;11.20;71.30
23323;DHT22;11833;52.554;13.554;2023-04-25T12:32:21;11.50;75.70
23323;DHT22;11833;52.554;13.554;2023-04-25T12:34:47;11.20;70.10
23323;DHT22;11833;52.554;13.554;2023-04-25T12:37:12;11.40;84.40
23323;DHT22;11833;52.554;13.554;2023-04-25T12:39:38;11.40;79.30
23323;DHT22;11833;52.554;13.554;2023-04-25T12:42:04;11.10;77.30
23323;DHT22;11833;52.554;13.554;2023-04-25T12:44:33;11.30;76.80
23323;DHT22;11833;52.554;13.554;2023-04-25T12:46:59;11.30;73.60
23323;DHT22;11833;52.554;13.554;2023-04-25T12:49:25;11.60;70.70
23323;DHT22;11833;52.554;13.554;2023-04-25T12:51:51;12.00;75.80
23323;DHT22;11833;52.554;13.554;2023-04-25T12:54:17;11.70;67.90
23323;DHT22;11833;52.554;13.554;2023-04-25T12:56:42;12.00;81.90
23323;DHT22;11833;52.554;13.554;2023-04-25T12:59:08;11.80;68.70
23323;DHT22;11833;52.554;13.554;2023-04-25T13:01:35;11.30;66.00
23323;DHT22;11833;52.554;13.554;2023-04-25T13:04:01;12.00;82.30
23323;DHT22;11833;52.554;13.554;2023-04-25T13:06:27;11.90;69.90
23323;DHT22;11833;52.554;13.554;2023-04-25T13:08:55;11.70;74.80
23323;DHT22;11833;52.554;13.554;2023-04-25T13:11:22;11.80;73.00
23323;DHT22;11833;52.554;13.554;2023-04-25T13:13:47;11.70;68.40
23323;DHT22;11833;52.554;13.554;2023-04-25T13:16:13;12.10;70.40
23323;DHT22;11833;52.554;13.554;2023-04-25T13:18:40;12.20;69.30
23323;DHT22;11833;52.554;13.554;2023-04-25T13:21:06;12.50;68.20
23323;DHT22;11833;52.554;13.554;2023-04-25T13:23:32;13.10;72.40
23323;DHT22;11833;52.554;13.554;2023-04-25T13:25:59;13.80;76.80
23323;DHT22;11833;52.554;13.554;2023-04-25T13:28:27;14.70;63.90
23323;DHT22;11833;52.554;13.554;2023-04-25T13:30:53;14.50;68.30
23323;DHT22;11833;52.554;13.554;2023-04-25T13:33:19;14.20;65.20
23323;DHT22;11833;52.554;13.554;2023-04-25T13:35:46;13.30;67.30
23323;DHT22;11833;52.554;13.554;2023-04-25T13:38:22;13.20;76.80
23323;DHT22;11833;52.554;13.554;2023-04-25T13:40:49;12.90;71.00
23323;DHT22;11833;52.554;13.554;2023-04-25T13:43:18;12.40;73.10
23323;DHT22;11833;52.554;13.554;2023-04-25T13:45:52;12.60;68.60
23323;DHT22;11833;52.554;13.554;2023-04-25T13:48:18;12.10;64.70
23323;DHT22;11833;52.554;13.554;2023-04-25T13:50:45;11.60;64.10
23323;DHT22;11833;52.554;13.554;2023-04-25T13:53:11;11.60;64.90
23323;DHT22;11833;52.554;13.554;2023-04-25T13:55:37;11.50;63.30
23323;DHT22;11833;52.554;13.554;2023-04-25T13:58:04;11.10;63.80
23323;DHT22;11833;52.554;13.554;2023-04-25T14:00:35;11.20;63.20
23323;DHT22;11833;52.554;13.554;2023-04-25T14:03:03;11.30;65.30
23323;DHT22;11833;52.554;13.554;2023-04-25T14:05:32;11.20;63.30
23323;DHT22;11833;52.554;13.554;2023-04-25T14:08:00;11.30;66.40
23323;DHT22;11833;52.554;13.554;2023-04-25T14:10:26;11.80;66.50
23323;DHT22;11833;52.554;13.554;2023-04-25T14:12:51;12.10;65.70
23323;DHT22;11833;52.554;13.554;2023-04-25T14:15:17;12.50;63.70
23323;DHT22;11833;52.554;13.554;2023-04-25T14:17:43;12.80;66.00
23323;DHT22;11833;52.554;13.554;2023-04-25T14:20:11;13.10;63.90
23323;DHT22;11833;52.554;13.554;2023-04-25T14:22:37;12.70;62.20
23323;DHT22;11833;52.554;13.554;2023-04-25T14:25:06;12.50;66.30
23323;DHT22;11833;52.554;13.554;2023-04-25T14:27:33;11.90;63.50
23323;DHT22;11833;52.554;13.554;2023-04-25T14:29:58;11.70;65.60
23323;DHT22;11833;52.554;13.554;2023-04-25T14:32:24;11.40;62.50
23323;DHT22;11833;52.554;13.554;2023-04-25T14:34:50;11.40;63.40
23323;DHT22;11833;52.554;13.554;2023-04-25T14:37:16;11.50;64.10
23323;DHT22;11833;52.554;13.554;2023-04-25T14:39:41;11.60;65.40
23323;DHT22;11833;52.554;13.554;2023-04-25T14:42:07;12.10;64.00
23323;DHT22;11833;52.554;13.554;2023-04-25T14:44:33;12.00;61.80
23323;DHT22;11833;52.554;13.554;2023-04-25T14:46:59;12.00;62.90
23323;DHT22;11833;52.554;13.554;2023-04-25T14:49:24;11.60;61.80
23323;DHT22;11833;52.554;13.554;2023-04-25T14:51:50;11.30;62.80
23323;DHT22;11833;52.554;13.554;2023-04-25T14:54:16;11.40;62.80
23323;DHT22;11833;52.554;13.554;2023-04-25T14:56:42;11.50;70.90
23323;DHT22;11833;52.554;13.554;2023-04-25T14:59:08;11.60;66.80
23323;DHT22;11833;52.554;13.554;2023-04-25T15:01:33;11.40;67.70
23323;DHT22;11833;52.554;13.554;2023-04-25T15:04:00;11.50;68.00
23323;DHT22;11833;52.554;13.554;2023-04-25T15:06:25;11.20;67.00
23323;DHT22;11833;52.554;13.554;2023-04-25T15:08:53;11.10;67.40
23323;DHT22;11833;52.554;13.554;2023-04-25T15:11:20;10.90;69.20
23323;DHT22;11833;52.554;13.554;2023-04-25T15:13:45;11.00;68.40
23323;DHT22;11833;52.554;13.554;2023-04-25T15:16:11;10.80;67.20
23323;DHT22;11833;52.554;13.554;2023-04-25T15:18:39;10.70;68.40
23323;DHT22;11833;52.554;13.554;2023-04-25T15:21:06;10.70;69.60
23323;DHT22;11833;52.554;13.554;2023-04-25T15:23:31;10.70;68.80
23323;DHT22;11833;52.554;13.554;2023-04-25T15:25:57;10.70;68.80
23323;DHT22;11833;52.554;13.554;2023-04-25T15:28:23;10.50;68.30
23323;DHT22;11833;52.554;13.554;2023-04-25T15:30:48;10.80;70.00
23323;DHT22;11833;52.554;13.554;2023-04-25T15:33:14;10.80;69.10